Mineiros, Brazil
Current Conditions -  °F | °C
As of 8:00 PM on Friday 24 Oct 2014 (Local Time) from SBBW Reporting Station
Light Rain Light Rain  
Wind Chill: 66°   Ceiling: 9000
Heat Index: 66°   Visibility: 6mi
Dew Point: 66°   Wind: 5mph
Humidity: 100%   Direction: 280°W
Pressure: NA   Gusts: NA
Location:  17.57°S, 52.55°W
Report Text: SBBW 242200Z 28004KT 9999 -RA SCT020 FEW025TCU BKN090 19/19 Q1011 RETS
Loading
Personal Weather Stations






























Interactive Weather Map
Tropical Storm Tracking
New forecast layout! Learn more

10-Day Weather Forecast

Advertisements
Track Severe Weather on mobile